createdAt,value
2022-11-12T00:03:35.575Z,95.44
2022-11-12T00:08:38.383Z,95.63
2022-11-12T00:13:41.141Z,95.30
2022-11-12T00:18:43.929Z,95.08
2022-11-12T00:23:46.725Z,95.09
2022-11-12T00:28:49.586Z,94.87
2022-11-12T00:33:52.383Z,94.49
2022-11-12T00:38:55.144Z,94.34
2022-11-12T00:43:57.973Z,93.92
2022-11-12T00:49:00.924Z,93.60
2022-11-12T00:54:04.379Z,93.73
2022-11-12T00:59:07.170Z,93.47
2022-11-12T01:04:10.354Z,92.83
2022-11-12T01:09:13.290Z,92.47
2022-11-12T01:14:16.056Z,92.29
2022-11-12T01:19:18.872Z,92.44
2022-11-12T01:24:21.672Z,92.04
2022-11-12T01:29:24.539Z,91.94
2022-11-12T01:34:27.868Z,91.85
2022-11-12T01:39:30.649Z,91.29
2022-11-12T01:44:35.594Z,91.33
2022-11-12T01:50:01.443Z,91.60
2022-11-12T01:55:11.927Z,91.45
2022-11-12T02:00:16.140Z,90.97
2022-11-12T02:05:20.941Z,90.48
2022-11-12T02:10:23.747Z,90.91
2022-11-12T02:15:28.092Z,90.63
2022-11-12T02:20:35.982Z,90.64
2022-11-12T02:25:38.790Z,90.64
2022-11-12T02:30:47.826Z,90.54
2022-11-12T02:35:50.608Z,90.43
2022-11-12T02:40:53.432Z,90.31
2022-11-12T02:45:56.401Z,90.40
2022-11-12T02:50:59.293Z,90.27
2022-11-12T02:56:02.238Z,89.75
2022-11-12T03:01:05.537Z,89.85
2022-11-12T03:06:08.349Z,89.91
2022-11-12T03:11:13.884Z,90.17
2022-11-12T03:16:16.679Z,90.35
2022-11-12T03:21:19.438Z,90.37
2022-11-12T03:26:22.260Z,90.30
2022-11-12T03:31:25.275Z,90.05
2022-11-12T03:36:28.285Z,89.76
2022-11-12T03:41:31.010Z,89.18
2022-11-12T03:46:33.758Z,89.39
2022-11-12T03:51:36.500Z,89.67
2022-11-12T03:56:39.442Z,89.25
2022-11-12T04:01:42.237Z,89.15
2022-11-12T04:07:03.414Z,89.09
2022-11-12T04:12:26.197Z,89.03
2022-11-12T04:17:47.434Z,88.94
2022-11-12T04:22:50.171Z,88.65
2022-11-12T04:27:52.949Z,89.15
2022-11-12T04:32:56.851Z,88.82
2022-11-12T04:37:59.665Z,88.63
2022-11-12T04:43:22.750Z,88.67
2022-11-12T04:48:26.404Z,88.89
2022-11-12T04:53:31.148Z,88.74
2022-11-12T04:58:33.878Z,88.84
2022-11-12T05:03:36.607Z,88.93
2022-11-12T05:08:39.382Z,88.90
2022-11-12T05:13:42.154Z,88.95
2022-11-12T05:18:44.918Z,89.12
2022-11-12T05:23:47.648Z,89.20
2022-11-12T05:28:50.406Z,89.29
2022-11-12T05:33:53.164Z,89.20
2022-11-12T05:38:55.969Z,89.40
2022-11-12T05:43:58.817Z,89.60
2022-11-12T05:49:01.604Z,89.58
2022-11-12T05:54:05.236Z,89.62
2022-11-12T05:59:09.989Z,89.46
2022-11-12T06:04:16.552Z,89.48
2022-11-12T06:09:19.307Z,89.47
2022-11-12T06:14:22.066Z,89.66
2022-11-12T06:19:24.797Z,89.41
2022-11-12T06:24:34.704Z,89.65
2022-11-12T06:29:38.863Z,89.64
2022-11-12T06:34:41.633Z,89.61
2022-11-12T06:39:44.381Z,89.89
2022-11-12T06:44:47.136Z,89.83
2022-11-12T06:49:49.931Z,89.77
2022-11-12T06:54:53.131Z,89.49
2022-11-12T06:59:56.138Z,88.91
2022-11-12T07:04:59.012Z,89.56
2022-11-12T07:10:01.916Z,89.65
2022-11-12T07:15:05.257Z,89.55
2022-11-12T07:20:09.288Z,89.20
2022-11-12T07:25:12.032Z,89.02
2022-11-12T07:30:15.223Z,88.89
2022-11-12T07:35:17.999Z,88.89
2022-11-12T07:40:22.044Z,88.64
2022-11-12T07:45:24.775Z,88.72
2022-11-12T07:50:27.638Z,88.23
2022-11-12T07:55:30.474Z,88.13
2022-11-12T08:00:33.333Z,88.04
2022-11-12T08:05:36.215Z,87.63
2022-11-12T08:10:39.055Z,87.33
2022-11-12T08:15:41.805Z,87.38
2022-11-12T08:20:44.696Z,87.29
2022-11-12T08:25:47.495Z,87.43
2022-11-12T08:30:50.360Z,86.77
2022-11-12T08:35:53.161Z,86.87
2022-11-12T08:40:59.584Z,86.86
2022-11-12T08:46:03.918Z,86.70
2022-11-12T08:51:07.530Z,86.62
2022-11-12T08:56:10.261Z,86.77
2022-11-12T09:01:13.169Z,86.91
2022-11-12T09:06:16.061Z,87.02
2022-11-12T09:11:19.179Z,86.97
2022-11-12T09:16:21.956Z,86.57
2022-11-12T09:21:25.020Z,87.00
2022-11-12T09:26:27.834Z,86.68
2022-11-12T09:31:30.688Z,86.57
2022-11-12T09:36:38.653Z,86.69
2022-11-12T09:41:42.912Z,86.68
2022-11-12T09:46:48.566Z,86.49
2022-11-12T09:52:02.288Z,86.75
2022-11-12T09:57:06.110Z,86.57
2022-11-12T10:02:27.262Z,86.07
2022-11-12T10:07:36.009Z,86.09
2022-11-12T10:13:09.800Z,85.73
2022-11-12T10:18:25.893Z,85.98
2022-11-12T10:23:41.128Z,85.35
2022-11-12T10:28:48.402Z,85.09
2022-11-12T10:33:51.232Z,84.87
2022-11-12T10:38:55.840Z,84.84
2022-11-12T10:44:04.599Z,84.49
2022-11-12T10:49:16.503Z,84.57
2022-11-12T10:54:28.224Z,83.79
2022-11-12T10:59:32.863Z,83.72
2022-11-12T11:04:38.023Z,83.80
2022-11-12T11:10:03.230Z,83.49
2022-11-12T11:15:20.257Z,83.55
2022-11-12T11:20:26.649Z,83.65
2022-11-12T11:25:33.543Z,83.48
2022-11-12T11:30:41.374Z,83.11
2022-11-12T11:35:57.964Z,83.16
2022-11-12T11:41:17.489Z,82.93
2022-11-12T11:46:29.121Z,82.81
2022-11-12T11:52:27.004Z,82.88
2022-11-12T11:57:39.374Z,82.49
2022-11-12T12:03:05.216Z,82.45
2022-11-12T12:08:18.942Z,82.61
2022-11-12T12:13:28.574Z,82.37
2022-11-12T12:18:45.379Z,82.81
2022-11-12T12:23:56.356Z,82.24
2022-11-12T12:29:17.255Z,82.36
2022-11-12T12:34:38.816Z,82.17
2022-11-12T12:39:53.950Z,82.25
2022-11-12T12:45:16.735Z,82.72
2022-11-12T12:50:21.593Z,83.10
2022-11-12T12:55:40.821Z,82.95
2022-11-12T13:00:50.051Z,83.51
2022-11-12T13:06:27.515Z,83.46
2022-11-12T13:12:01.392Z,83.90
2022-11-12T13:17:07.159Z,84.35
2022-11-12T13:22:18.750Z,84.59
2022-11-12T13:27:46.032Z,84.72
2022-11-12T13:32:49.764Z,84.96
2022-11-12T13:38:15.965Z,85.30
2022-11-12T13:43:31.526Z,85.21
2022-11-12T13:48:43.285Z,85.50
2022-11-12T13:53:47.091Z,85.70
2022-11-12T13:58:54.418Z,85.89
2022-11-12T14:03:57.332Z,86.20
2022-11-12T14:09:00.094Z,86.47
2022-11-12T14:14:25.229Z,86.95
2022-11-12T14:20:21.240Z,87.05
2022-11-12T14:25:26.559Z,87.55
2022-11-12T14:30:32.945Z,87.64
2022-11-12T14:35:37.959Z,88.37
2022-11-12T14:40:49.211Z,88.73
2022-11-12T14:45:54.429Z,89.26
2022-11-12T14:51:08.586Z,89.75
2022-11-12T14:56:20.642Z,90.24
2022-11-12T15:06:55.212Z,91.24
2022-11-12T15:11:58.411Z,91.84
2022-11-12T15:17:01.801Z,92.20
2022-11-12T15:22:21.728Z,92.54
2022-11-12T15:27:36.321Z,92.94
2022-11-12T15:32:39.116Z,93.15
2022-11-12T15:37:43.673Z,93.57
2022-11-12T15:42:48.175Z,93.78
2022-11-12T15:47:50.960Z,93.96
2022-11-12T15:52:54.790Z,94.41
2022-11-12T15:57:58.404Z,94.66
2022-11-12T16:03:21.267Z,95.03
2022-11-12T16:08:24.683Z,95.16
2022-11-12T16:13:36.161Z,95.76
2022-11-12T16:18:39.905Z,96.67
2022-11-12T16:23:42.848Z,97.16
2022-11-12T16:28:45.821Z,97.28
2022-11-12T16:33:48.684Z,97.50
2022-11-12T16:38:51.451Z,97.96
2022-11-12T16:43:54.647Z,98.40
2022-11-12T16:48:57.486Z,98.71
2022-11-12T16:54:03.451Z,98.94
2022-11-12T16:59:15.955Z,99.05
2022-11-12T17:04:18.892Z,99.34
2022-11-12T17:09:21.653Z,99.74
2022-11-12T17:14:28.379Z,99.81
2022-11-12T17:19:31.396Z,99.97
2022-11-12T17:24:34.381Z,100.00
2022-11-12T17:29:37.243Z,100.00
2022-11-12T17:34:40.043Z,100.00
2022-11-12T17:39:44.684Z,100.00
2022-11-12T17:44:47.533Z,99.99
2022-11-12T17:49:51.301Z,100.00
2022-11-12T17:54:54.114Z,100.00
2022-11-12T17:59:56.942Z,100.00
2022-11-12T18:04:59.677Z,100.00
2022-11-12T18:10:02.493Z,100.00
2022-11-12T18:15:05.744Z,100.00
2022-11-12T18:20:09.116Z,100.00
2022-11-12T18:25:14.601Z,100.00
2022-11-12T18:30:19.407Z,100.00
2022-11-12T18:35:27.271Z,100.00
2022-11-12T18:40:32.591Z,100.00
2022-11-12T18:45:35.444Z,100.00
2022-11-12T18:50:38.281Z,100.00
2022-11-12T18:55:41.180Z,100.00
2022-11-12T19:00:44.066Z,100.00
2022-11-12T19:05:48.540Z,100.00
2022-11-12T19:11:04.155Z,100.00
2022-11-12T19:16:14.282Z,100.00
2022-11-12T19:21:20.898Z,100.00
2022-11-12T19:26:24.113Z,100.00
2022-11-12T19:31:28.304Z,100.00
2022-11-12T19:36:31.430Z,100.00
2022-11-12T19:41:34.200Z,100.00
2022-11-12T19:46:37.071Z,100.00
2022-11-12T19:51:39.855Z,100.00
2022-11-12T19:56:42.659Z,100.00
2022-11-12T20:01:45.539Z,100.00
2022-11-12T20:06:48.456Z,100.00
2022-11-12T20:11:51.265Z,100.00
2022-11-12T20:16:54.053Z,100.00
2022-11-12T20:21:57.017Z,100.00
2022-11-12T20:26:59.779Z,100.00
2022-11-12T20:32:02.894Z,100.00
2022-11-12T20:37:05.752Z,100.00
2022-11-12T20:42:08.554Z,100.00
2022-11-12T20:47:11.906Z,100.00
2022-11-12T20:52:14.679Z,100.00
2022-11-12T20:57:17.508Z,100.00
2022-11-12T21:02:20.256Z,100.00
2022-11-12T21:07:23.104Z,100.00
2022-11-12T21:12:25.942Z,100.00
2022-11-12T21:17:28.736Z,100.00
2022-11-12T21:22:32.695Z,100.00
2022-11-12T21:27:35.578Z,100.00
2022-11-12T21:32:38.563Z,100.00
2022-11-12T21:37:41.341Z,100.00
2022-11-12T21:42:45.121Z,100.00
2022-11-12T21:47:47.940Z,100.00
2022-11-12T21:52:50.686Z,100.00
2022-11-12T21:57:53.484Z,100.00
2022-11-12T22:02:56.424Z,100.00
2022-11-12T22:07:59.161Z,100.00
2022-11-12T22:18:25.512Z,100.00
2022-11-12T22:23:29.207Z,100.00
2022-11-12T22:28:33.877Z,100.00
2022-11-12T22:33:37.408Z,100.00
2022-11-12T22:38:47.668Z,100.00
2022-11-12T22:43:53.088Z,100.00
2022-11-12T22:48:56.779Z,100.00
2022-11-12T22:54:01.818Z,100.00
2022-11-12T22:59:05.029Z,100.00
2022-11-12T23:04:08.153Z,100.00
2022-11-12T23:09:16.070Z,100.00
2022-11-12T23:14:18.833Z,100.00
2022-11-12T23:19:21.732Z,100.00
2022-11-12T23:24:24.523Z,100.00
2022-11-12T23:29:27.269Z,100.00
2022-11-12T23:34:30.026Z,100.00
2022-11-12T23:39:32.752Z,100.00
2022-11-12T23:44:35.527Z,100.00
2022-11-12T23:49:38.337Z,100.00
2022-11-12T23:54:41.083Z,100.00
2022-11-12T23:59:44.082Z,100.00
